LPPR/OPO METAR and TAF weather

Enter ICAO airport designator
Station Type Date Time Source
LPPR METAR 2020/08/06 01:00 UTC NOAA

LPPR 060100Z 00000KT CAVOK 15/14 Q1012


Station Type Date Time Source
LPPR Decoded METAR 2020/08/06 01:00 UTC NOAA

Porto / Pedras Rubras, Portugal (LPPR) 41-14N 008-41W 77M
Aug 05, 2020 - 09:00 PM EDT / 2020.08.06 0100 UTC
Wind: Calm:0
Visibility: greater than 7 mile(s):0
Temperature: 59 F (15 C)
Dew Point: 57 F (14 C)
Relative Humidity: 93%
Pressure (altimeter): 29.88 in. Hg (1012 hPa)
ob: LPPR 060100Z 00000KT CAVOK 15/14 Q1012
cycle: 1

Station Type Date Time Source
LPPR TAF 2020/08/05 18:18 UTC NOAA

TAF LPPR 051700Z 0518/0618 33013KT CAVOK
BECMG 0519/0521 33007KT
BECMG 0600/0602 VRB02KT PROB30
TEMPO 0605/0608 5000 BR SCT003
BECMG 0609/0612 25007KT
BECMG 0615/0618 30007KT 9999 FEW013

Example: see airport list